sensor_id;sensor_type;location;lat;lon;timestamp;temperature;humidity
42617;DHT22;28250;52.320;0.360;2023-07-24T00:02:07;16.40;99.90
42617;DHT22;28250;52.320;0.360;2023-07-24T00:04:33;16.40;99.90
42617;DHT22;28250;52.320;0.360;2023-07-24T00:07:00;16.30;99.90
42617;DHT22;28250;52.320;0.360;2023-07-24T00:09:26;16.30;99.90
42617;DHT22;28250;52.320;0.360;2023-07-24T00:11:52;16.40;99.90
42617;DHT22;28250;52.320;0.360;2023-07-24T00:14:18;16.40;99.90
42617;DHT22;28250;52.320;0.360;2023-07-24T00:16:44;16.30;99.90
42617;DHT22;28250;52.320;0.360;2023-07-24T00:19:10;16.30;99.90
42617;DHT22;28250;52.320;0.360;2023-07-24T00:21:36;16.40;99.90
42617;DHT22;28250;52.320;0.360;2023-07-24T00:24:02;16.30;99.90
42617;DHT22;28250;52.320;0.360;2023-07-24T00:26:28;16.40;99.90
42617;DHT22;28250;52.320;0.360;2023-07-24T00:28:55;16.40;99.90
42617;DHT22;28250;52.320;0.360;2023-07-24T00:31:21;16.40;99.90
42617;DHT22;28250;52.320;0.360;2023-07-24T00:33:47;16.40;99.90
42617;DHT22;28250;52.320;0.360;2023-07-24T00:36:13;16.30;99.90
42617;DHT22;28250;52.320;0.360;2023-07-24T00:38:39;16.30;99.90
42617;DHT22;28250;52.320;0.360;2023-07-24T00:41:06;16.30;99.90
42617;DHT22;28250;52.320;0.360;2023-07-24T00:43:32;16.30;99.90
42617;DHT22;28250;52.320;0.360;2023-07-24T00:45:58;16.30;99.90
42617;DHT22;28250;52.320;0.360;2023-07-24T00:48:24;16.30;99.90
42617;DHT22;28250;52.320;0.360;2023-07-24T00:50:50;16.30;99.90
42617;DHT22;28250;52.320;0.360;2023-07-24T00:53:17;16.30;99.90
42617;DHT22;28250;52.320;0.360;2023-07-24T00:55:44;16.20;99.90
42617;DHT22;28250;52.320;0.360;2023-07-24T00:58:11;16.20;99.90
42617;DHT22;28250;52.320;0.360;2023-07-24T01:00:38;16.30;99.90
42617;DHT22;28250;52.320;0.360;2023-07-24T01:03:05;16.30;99.90
42617;DHT22;28250;52.320;0.360;2023-07-24T01:05:31;16.30;99.90
42617;DHT22;28250;52.320;0.360;2023-07-24T01:07:57;16.20;99.90
42617;DHT22;28250;52.320;0.360;2023-07-24T01:10:23;16.30;99.90
42617;DHT22;28250;52.320;0.360;2023-07-24T01:15:39;16.20;99.90
42617;DHT22;28250;52.320;0.360;2023-07-24T01:18:09;16.20;99.90
42617;DHT22;28250;52.320;0.360;2023-07-24T01:20:38;16.20;99.90
42617;DHT22;28250;52.320;0.360;2023-07-24T01:23:14;16.20;99.90
42617;DHT22;28250;52.320;0.360;2023-07-24T01:25:56;16.10;99.90
42617;DHT22;28250;52.320;0.360;2023-07-24T01:28:28;16.10;99.90
42617;DHT22;28250;52.320;0.360;2023-07-24T01:30:55;16.10;99.90
42617;DHT22;28250;52.320;0.360;2023-07-24T01:33:22;16.10;99.90
42617;DHT22;28250;52.320;0.360;2023-07-24T01:35:57;16.00;99.90
42617;DHT22;28250;52.320;0.360;2023-07-24T01:38:25;16.00;99.90
42617;DHT22;28250;52.320;0.360;2023-07-24T01:40:55;16.00;99.90
42617;DHT22;28250;52.320;0.360;2023-07-24T01:43:24;16.10;99.90
42617;DHT22;28250;52.320;0.360;2023-07-24T01:45:57;16.00;99.90
42617;DHT22;28250;52.320;0.360;2023-07-24T01:48:24;16.00;99.90
42617;DHT22;28250;52.320;0.360;2023-07-24T01:50:50;16.00;99.90
42617;DHT22;28250;52.320;0.360;2023-07-24T01:53:16;16.10;99.90
42617;DHT22;28250;52.320;0.360;2023-07-24T01:55:42;16.10;99.90
42617;DHT22;28250;52.320;0.360;2023-07-24T01:58:08;16.00;99.90
42617;DHT22;28250;52.320;0.360;2023-07-24T02:00:34;16.00;99.90
42617;DHT22;28250;52.320;0.360;2023-07-24T02:03:00;16.00;99.90
42617;DHT22;28250;52.320;0.360;2023-07-24T02:05:26;16.00;99.90
42617;DHT22;28250;52.320;0.360;2023-07-24T02:07:52;16.00;99.90
42617;DHT22;28250;52.320;0.360;2023-07-24T02:10:18;15.90;99.90
42617;DHT22;28250;52.320;0.360;2023-07-24T02:12:44;15.90;99.90
42617;DHT22;28250;52.320;0.360;2023-07-24T02:15:10;15.80;99.90
42617;DHT22;28250;52.320;0.360;2023-07-24T02:17:36;15.80;99.90
42617;DHT22;28250;52.320;0.360;2023-07-24T02:20:03;15.80;99.90
42617;DHT22;28250;52.320;0.360;2023-07-24T02:22:41;15.80;99.90
42617;DHT22;28250;52.320;0.360;2023-07-24T02:25:07;15.70;99.90
42617;DHT22;28250;52.320;0.360;2023-07-24T02:27:34;15.70;99.90
42617;DHT22;28250;52.320;0.360;2023-07-24T02:30:00;15.70;99.90
42617;DHT22;28250;52.320;0.360;2023-07-24T02:32:27;15.70;99.90
42617;DHT22;28250;52.320;0.360;2023-07-24T02:34:53;15.70;99.90
42617;DHT22;28250;52.320;0.360;2023-07-24T02:37:19;15.60;99.90
42617;DHT22;28250;52.320;0.360;2023-07-24T02:39:46;15.60;99.90
42617;DHT22;28250;52.320;0.360;2023-07-24T02:42:12;15.60;99.90
42617;DHT22;28250;52.320;0.360;2023-07-24T02:44:38;15.60;99.90
